Time,TemperatureF,DewpointF,PressureIn,WindDirection,WindDirectionDegrees,WindSpeedMPH,WindSpeedGustMPH,Humidity,HourlyPrecipIn,Conditions,Clouds,dailyrainin,SoftwareType,DateUTC
2013-01-07 00:04:00,44.5,42.9,30.11,South,171,4.0,5.0,94,0.03,,---,0.00,VWS V14.00,2013-01-07 08:04:00,
2013-01-07 00:09:00,44.5,42.6,30.11,SSE,163,6.0,7.0,93,0.03,,---,0.00,VWS V14.00,2013-01-07 08:09:00,
2013-01-07 00:14:00,44.5,42.6,30.11,South,178,6.0,7.0,93,0.03,,---,0.00,VWS V14.00,2013-01-07 08:14:00,
2013-01-07 00:19:00,44.5,42.6,30.11,SSE,159,4.0,7.0,93,0.03,,---,0.00,VWS V14.00,2013-01-07 08:19:00,
2013-01-07 00:24:00,44.4,42.5,30.11,South,169,4.0,9.0,93,0.04,,---,0.01,VWS V14.00,2013-01-07 08:24:00,
2013-01-07 00:29:00,44.3,42.7,30.11,SSE,159,4.0,11.0,94,0.04,,---,0.01,VWS V14.00,2013-01-07 08:29:00,
2013-01-07 00:34:00,44.2,42.6,30.11,SSW,199,6.0,10.0,94,0.02,,---,0.01,VWS V14.00,2013-01-07 08:34:00,
2013-01-07 00:39:00,44.2,42.6,30.12,SSW,198,5.0,10.0,94,0.03,,---,0.02,VWS V14.00,2013-01-07 08:39:00,
2013-01-07 00:44:00,44.1,42.5,30.12,South,180,2.0,10.0,94,0.03,,---,0.02,VWS V14.00,2013-01-07 08:44:00,
2013-01-07 00:49:00,44.0,42.4,30.12,SSW,196,5.0,10.0,94,0.04,,---,0.03,VWS V14.00,2013-01-07 08:49:00,
2013-01-07 00:54:00,43.9,42.3,30.11,South,182,3.0,10.0,94,0.05,,---,0.04,VWS V14.00,2013-01-07 08:54:00,
2013-01-07 00:59:00,43.9,42.6,30.11,South,174,4.0,10.0,95,0.06,,---,0.05,VWS V14.00,2013-01-07 08:59:00,
2013-01-07 01:04:00,43.9,42.6,30.11,SW,229,5.0,9.0,95,0.05,,---,0.05,VWS V14.00,2013-01-07 09:04:00,
2013-01-07 01:09:00,43.9,42.6,30.11,South,190,3.0,10.0,95,0.05,,---,0.05,VWS V14.00,2013-01-07 09:09:00,
2013-01-07 01:14:00,43.8,42.5,30.10,WSW,251,5.0,10.0,95,0.06,,---,0.06,VWS V14.00,2013-01-07 09:14:00,
2013-01-07 01:19:00,43.8,42.5,30.10,SSE,153,4.0,10.0,95,0.06,,---,0.06,VWS V14.00,2013-01-07 09:19:00,
2013-01-07 01:24:00,43.8,42.5,30.10,South,179,5.0,10.0,95,0.06,,---,0.06,VWS V14.00,2013-01-07 09:24:00,
2013-01-07 01:29:00,43.8,42.5,30.11,SSE,167,2.0,10.0,95,0.06,,---,0.06,VWS V14.00,2013-01-07 09:29:00,
2013-01-07 01:34:00,44.0,42.7,30.11,SSW,196,7.0,11.0,95,0.05,,---,0.06,VWS V14.00,2013-01-07 09:34:00,
2013-01-07 01:39:00,43.9,42.6,30.11,SSW,192,5.0,11.0,95,0.05,,---,0.06,VWS V14.00,2013-01-07 09:39:00,
2013-01-07 01:44:00,43.9,42.6,30.11,West,276,5.0,11.0,95,0.05,,---,0.06,VWS V14.00,2013-01-07 09:44:00,
2013-01-07 01:49:00,44.0,42.7,30.12,SSW,195,7.0,11.0,95,0.05,,---,0.06,VWS V14.00,2013-01-07 09:49:00,
2013-01-07 01:54:00,44.0,42.4,30.11,SSE,162,4.0,11.0,94,0.05,,---,0.06,VWS V14.00,2013-01-07 09:54:00,
2013-01-07 01:59:00,44.0,42.7,30.12,SSE,163,2.0,11.0,95,0.05,,---,0.06,VWS V14.00,2013-01-07 09:59:00,
2013-01-07 02:04:00,44.0,42.7,30.12,SSW,205,4.0,7.0,95,0.01,,---,0.06,VWS V14.00,2013-01-07 10:04:00,
2013-01-07 02:09:00,44.1,42.8,30.12,SSE,168,8.0,10.0,95,0.01,,---,0.06,VWS V14.00,2013-01-07 10:09:00,
2013-01-07 02:14:00,44.1,42.8,30.11,South,180,4.0,12.0,95,0.01,,---,0.06,VWS V14.00,2013-01-07 10:14:00,
2013-01-07 02:19:00,44.1,42.8,30.11,SSE,167,1.0,14.0,95,0.01,,---,0.06,VWS V14.00,2013-01-07 10:19:00,
2013-01-07 02:24:00,44.1,42.8,30.11,SSW,196,4.0,14.0,95,0.01,,---,0.06,VWS V14.00,2013-01-07 10:24:00,
2013-01-07 02:30:00,44.2,42.9,30.11,SSE,159,2.0,14.0,95,0.01,,---,0.06,VWS V14.00,2013-01-07 10:30:00,
2013-01-07 02:35:00,44.2,42.9,30.11,SSW,194,4.0,8.0,95,0.00,,---,0.06,VWS V14.00,2013-01-07 10:35:00,
2013-01-07 02:39:00,44.3,43.0,30.11,South,169,4.0,10.0,95,0.00,,---,0.06,VWS V14.00,2013-01-07 10:39:00,
2013-01-07 02:45:00,44.3,43.0,30.10,South,177,4.0,10.0,95,0.00,,---,0.06,VWS V14.00,2013-01-07 10:45:00,
2013-01-07 02:50:00,44.3,43.0,30.10,SSE,163,5.0,10.0,95,0.00,,---,0.06,VWS V14.00,2013-01-07 10:50:00,
2013-01-07 02:55:00,44.4,43.1,30.11,SSE,163,6.0,10.0,95,0.00,,---,0.06,VWS V14.00,2013-01-07 10:55:00,
2013-01-07 03:00:00,44.4,43.1,30.10,SE,140,5.0,10.0,95,0.00,,---,0.06,VWS V14.00,2013-01-07 11:00:00,
2013-01-07 03:05:00,44.5,43.2,30.10,SSW,211,4.0,8.0,95,0.00,,---,0.06,VWS V14.00,2013-01-07 11:05:00,
2013-01-07 03:10:00,44.6,43.3,30.10,South,173,5.0,9.0,95,0.00,,---,0.06,VWS V14.00,2013-01-07 11:10:00,
2013-01-07 03:15:00,44.7,43.4,30.09,SSE,166,6.0,9.0,95,0.00,,---,0.06,VWS V14.00,2013-01-07 11:15:00,
2013-01-07 03:20:00,44.8,43.2,30.09,SSE,161,5.0,12.0,94,0.00,,---,0.06,VWS V14.00,2013-01-07 11:20:00,
2013-01-07 03:25:00,44.9,43.3,30.09,SSE,156,4.0,14.0,94,0.00,,---,0.06,VWS V14.00,2013-01-07 11:25:00,
2013-01-07 03:30:00,45.1,43.5,30.09,SSE,161,4.0,14.0,94,0.00,,---,0.06,VWS V14.00,2013-01-07 11:30:00,
2013-01-07 03:35:00,45.2,43.6,30.09,SE,143,5.0,12.0,94,0.00,,---,0.06,VWS V14.00,2013-01-07 11:35:00,
2013-01-07 03:40:00,45.2,43.6,30.09,South,170,4.0,12.0,94,0.00,,---,0.06,VWS V14.00,2013-01-07 11:40:00,
2013-01-07 03:45:00,45.3,43.7,30.10,SE,145,7.0,12.0,94,0.00,,---,0.06,VWS V14.00,2013-01-07 11:45:00,
2013-01-07 03:50:00,45.4,43.8,30.09,South,170,6.0,12.0,94,0.01,,---,0.07,VWS V14.00,2013-01-07 11:50:00,
2013-01-07 03:55:00,45.3,43.7,30.09,South,184,3.0,14.0,94,0.01,,---,0.07,VWS V14.00,2013-01-07 11:55:00,
2013-01-07 04:00:00,45.2,43.9,30.09,South,187,7.0,14.0,95,0.01,,---,0.07,VWS V14.00,2013-01-07 12:00:00,
2013-01-07 04:05:00,45.2,43.9,30.08,South,174,5.0,9.0,95,0.01,,---,0.07,VWS V14.00,2013-01-07 12:05:00,
2013-01-07 04:10:00,45.1,43.8,30.09,SW,215,4.0,9.0,95,0.01,,---,0.07,VWS V14.00,2013-01-07 12:10:00,
2013-01-07 04:15:00,45.2,43.9,30.09,SE,141,2.0,10.0,95,0.01,,---,0.07,VWS V14.00,2013-01-07 12:15:00,
2013-01-07 04:20:00,45.3,44.0,30.10,South,182,6.0,10.0,95,0.01,,---,0.07,VWS V14.00,2013-01-07 12:20:00,
2013-01-07 04:25:00,45.3,44.0,30.10,SSE,164,7.0,10.0,95,0.01,,---,0.07,VWS V14.00,2013-01-07 12:25:00,
2013-01-07 04:30:00,45.5,44.2,30.09,South,180,2.0,13.0,95,0.01,,---,0.07,VWS V14.00,2013-01-07 12:30:00,
2013-01-07 04:35:00,45.5,44.2,30.08,South,181,3.0,13.0,95,0.01,,---,0.07,VWS V14.00,2013-01-07 12:35:00,
2013-01-07 04:40:00,45.5,44.2,30.08,SSE,164,9.0,13.0,95,0.01,,---,0.07,VWS V14.00,2013-01-07 12:40:00,
2013-01-07 04:45:00,45.6,44.2,30.08,South,186,7.0,13.0,95,0.01,,---,0.07,VWS V14.00,2013-01-07 12:45:00,
2013-01-07 04:50:00,45.7,44.3,30.08,SSW,194,3.0,13.0,95,0.01,,---,0.07,VWS V14.00,2013-01-07 12:50:00,
2013-01-07 04:55:00,45.7,44.1,30.08,South,186,8.0,13.0,94,0.01,,---,0.07,VWS V14.00,2013-01-07 12:55:00,
2013-01-07 05:00:00,45.8,44.2,30.08,SSW,210,4.0,13.0,94,0.01,,---,0.07,VWS V14.00,2013-01-07 13:00:00,
2013-01-07 05:05:00,45.8,44.2,30.08,South,171,7.0,12.0,94,0.00,,---,0.07,VWS V14.00,2013-01-07 13:05:00,
2013-01-07 05:10:00,45.9,44.3,30.08,South,186,6.0,15.0,94,0.00,,---,0.07,VWS V14.00,2013-01-07 13:10:00,
2013-01-07 05:15:00,45.9,44.3,30.08,SW,219,4.0,15.0,94,0.00,,---,0.07,VWS V14.00,2013-01-07 13:15:00,
2013-01-07 05:20:00,46.0,44.4,30.07,SSW,196,10.0,17.0,94,0.00,,---,0.07,VWS V14.00,2013-01-07 13:20:00,
2013-01-07 05:25:00,46.0,44.4,30.07,SSW,202,6.0,17.0,94,0.00,,---,0.07,VWS V14.00,2013-01-07 13:25:00,
2013-01-07 05:30:00,46.0,44.4,30.06,South,188,7.0,17.0,94,0.00,,---,0.07,VWS V14.00,2013-01-07 13:30:00,
2013-01-07 05:35:00,46.0,44.4,30.05,South,185,6.0,9.0,94,0.00,,---,0.07,VWS V14.00,2013-01-07 13:35:00,
2013-01-07 05:40:00,46.1,44.8,30.05,SSW,198,9.0,14.0,95,0.00,,---,0.07,VWS V14.00,2013-01-07 13:40:00,
2013-01-07 05:45:00,46.2,44.6,30.05,South,186,6.0,14.0,94,0.00,,---,0.07,VWS V14.00,2013-01-07 13:45:00,
2013-01-07 05:50:00,46.3,44.7,30.06,South,180,7.0,14.0,94,0.00,,---,0.07,VWS V14.00,2013-01-07 13:50:00,
2013-01-07 05:55:00,46.4,44.8,30.06,South,181,5.0,14.0,94,0.00,,---,0.07,VWS V14.00,2013-01-07 13:55:00,
2013-01-07 06:00:00,46.5,44.9,30.06,SSW,193,2.0,14.0,94,0.00,,---,0.07,VWS V14.00,2013-01-07 14:00:00,
2013-01-07 06:05:00,46.5,44.9,30.07,SSW,196,9.0,10.0,94,0.00,,---,0.07,VWS V14.00,2013-01-07 14:05:00,
2013-01-07 06:10:00,46.6,45.0,30.08,SSW,210,3.0,10.0,94,0.00,,---,0.07,VWS V14.00,2013-01-07 14:10:00,
2013-01-07 06:15:00,46.6,45.0,30.08,SW,232,6.0,10.0,94,0.00,,---,0.07,VWS V14.00,2013-01-07 14:15:00,
2013-01-07 06:20:00,46.5,44.9,30.08,South,177,5.0,11.0,94,0.01,,---,0.08,VWS V14.00,2013-01-07 14:20:00,
2013-01-07 06:25:00,46.3,45.0,30.08,SSW,207,7.0,11.0,95,0.02,,---,0.09,VWS V14.00,2013-01-07 14:25:00,
2013-01-07 06:30:00,46.3,45.0,30.09,SSE,168,6.0,11.0,95,0.02,,---,0.09,VWS V14.00,2013-01-07 14:30:00,
2013-01-07 06:35:00,46.2,45.1,30.09,SSW,194,6.0,9.0,96,0.02,,---,0.09,VWS V14.00,2013-01-07 14:35:00,
2013-01-07 06:40:00,46.1,45.0,30.08,SE,126,4.0,12.0,96,0.02,,---,0.09,VWS V14.00,2013-01-07 14:40:00,
2013-01-07 06:45:00,46.2,45.1,30.08,South,186,5.0,12.0,96,0.02,,---,0.09,VWS V14.00,2013-01-07 14:45:00,
2013-01-07 06:50:00,46.1,45.0,30.07,SSW,192,5.0,12.0,96,0.02,,---,0.09,VWS V14.00,2013-01-07 14:50:00,
2013-01-07 06:55:00,46.1,45.0,30.07,South,182,2.0,12.0,96,0.02,,---,0.09,VWS V14.00,2013-01-07 14:55:00,
2013-01-07 07:00:00,46.2,45.1,30.07,SSW,194,4.0,12.0,96,0.03,,---,0.10,VWS V14.00,2013-01-07 15:00:00,
2013-01-07 07:05:00,46.3,45.2,30.08,South,185,4.0,10.0,96,0.03,,---,0.10,VWS V14.00,2013-01-07 15:05:00,
2013-01-07 07:10:00,46.3,45.2,30.08,SSW,201,4.0,10.0,96,0.03,,---,0.10,VWS V14.00,2013-01-07 15:10:00,
2013-01-07 07:15:00,46.4,45.3,30.08,SSW,193,4.0,10.0,96,0.03,,---,0.10,VWS V14.00,2013-01-07 15:15:00,
2013-01-07 07:20:00,46.4,45.3,30.08,SW,223,5.0,10.0,96,0.03,,---,0.10,VWS V14.00,2013-01-07 15:20:00,
2013-01-07 07:26:00,46.5,45.4,30.08,SSW,207,3.0,10.0,96,0.04,,---,0.11,VWS V14.00,2013-01-07 15:26:00,
2013-01-07 07:31:00,46.5,45.4,30.08,SSE,161,4.0,10.0,96,0.04,,---,0.11,VWS V14.00,2013-01-07 15:31:00,
2013-01-07 07:36:00,46.6,45.5,30.08,SSW,210,6.0,8.0,96,0.02,,---,0.11,VWS V14.00,2013-01-07 15:36:00,
2013-01-07 07:41:00,46.7,45.3,30.08,South,171,6.0,13.0,95,0.02,,---,0.11,VWS V14.00,2013-01-07 15:41:00,
2013-01-07 07:46:00,46.8,45.5,30.07,SSW,200,10.0,13.0,95,0.02,,---,0.11,VWS V14.00,2013-01-07 15:46:00,
2013-01-07 07:51:00,46.9,45.5,30.08,SSW,205,9.0,13.0,95,0.03,,---,0.12,VWS V14.00,2013-01-07 15:51:00,
2013-01-07 07:56:00,46.9,45.5,30.08,SSW,211,5.0,13.0,95,0.03,,---,0.12,VWS V14.00,2013-01-07 15:56:00,
2013-01-07 08:01:00,47.0,45.7,30.08,South,177,8.0,13.0,95,0.03,,---,0.12,VWS V14.00,2013-01-07 16:01:00,
2013-01-07 08:06:00,47.0,45.7,30.08,SSE,168,8.0,11.0,95,0.02,,---,0.12,VWS V14.00,2013-01-07 16:06:00,
2013-01-07 08:11:00,47.0,45.7,30.09,South,180,5.0,12.0,95,0.02,,---,0.12,VWS V14.00,2013-01-07 16:11:00,
2013-01-07 08:16:00,47.1,45.7,30.09,South,178,5.0,13.0,95,0.02,,---,0.12,VWS V14.00,2013-01-07 16:16:00,
2013-01-07 08:21:00,47.2,45.8,30.10,SW,233,4.0,13.0,95,0.02,,---,0.12,VWS V14.00,2013-01-07 16:21:00,
2013-01-07 08:26:00,47.2,45.8,30.10,SSW,194,6.0,13.0,95,0.02,,---,0.12,VWS V14.00,2013-01-07 16:26:00,
2013-01-07 08:31:00,47.3,45.9,30.11,SSW,194,4.0,13.0,95,0.02,,---,0.12,VWS V14.00,2013-01-07 16:31:00,
2013-01-07 08:36:00,47.4,46.0,30.11,SSE,167,4.0,9.0,95,0.01,,---,0.12,VWS V14.00,2013-01-07 16:36:00,
2013-01-07 08:41:00,47.5,45.9,30.11,South,177,5.0,11.0,94,0.01,,---,0.12,VWS V14.00,2013-01-07 16:41:00,
2013-01-07 08:46:00,47.6,46.0,30.11,SW,221,5.0,14.0,94,0.01,,---,0.12,VWS V14.00,2013-01-07 16:46:00,
2013-01-07 08:51:00,47.7,46.1,30.11,SSE,161,7.0,14.0,94,0.01,,---,0.12,VWS V14.00,2013-01-07 16:51:00,
2013-01-07 08:56:00,47.8,46.2,30.11,SW,225,6.0,14.0,94,0.01,,---,0.12,VWS V14.00,2013-01-07 16:56:00,
2013-01-07 09:01:00,47.7,46.1,30.11,SSW,203,6.0,14.0,94,0.01,,---,0.12,VWS V14.00,2013-01-07 17:01:00,
2013-01-07 09:06:00,47.8,46.2,30.12,SSW,205,7.0,14.0,94,0.00,,---,0.12,VWS V14.00,2013-01-07 17:06:00,
2013-01-07 09:11:00,47.9,46.3,30.12,South,170,2.0,15.0,94,0.00,,---,0.12,VWS V14.00,2013-01-07 17:11:00,
2013-01-07 09:16:00,47.8,46.2,30.12,South,182,7.0,15.0,94,0.00,,---,0.12,VWS V14.00,2013-01-07 17:16:00,
2013-01-07 09:21:00,47.8,46.4,30.13,South,189,3.0,15.0,95,0.00,,---,0.12,VWS V14.00,2013-01-07 17:21:00,
2013-01-07 09:26:00,47.8,46.4,30.13,SSW,198,6.0,15.0,95,0.00,,---,0.12,VWS V14.00,2013-01-07 17:26:00,
2013-01-07 09:31:00,47.8,46.4,30.13,SSE,168,4.0,15.0,95,0.00,,---,0.12,VWS V14.00,2013-01-07 17:31:00,
2013-01-07 09:36:00,47.8,46.4,30.14,South,180,5.0,11.0,95,0.00,,---,0.12,VWS V14.00,2013-01-07 17:36:00,
2013-01-07 09:41:00,47.9,46.5,30.14,SSW,194,4.0,12.0,95,0.00,,---,0.12,VWS V14.00,2013-01-07 17:41:00,
2013-01-07 09:46:00,47.9,46.8,30.14,South,181,15.0,19.0,96,0.00,,---,0.12,VWS V14.00,2013-01-07 17:46:00,
2013-01-07 09:51:00,47.9,46.8,30.15,SSW,192,5.0,19.0,96,0.00,,---,0.12,VWS V14.00,2013-01-07 17:51:00,
2013-01-07 09:56:00,47.9,46.8,30.15,SSW,203,7.0,19.0,96,0.00,,---,0.12,VWS V14.00,2013-01-07 17:56:00,
2013-01-07 10:01:00,47.9,46.8,30.15,South,178,5.0,19.0,96,0.00,,---,0.12,VWS V14.00,2013-01-07 18:01:00,
2013-01-07 10:07:00,47.9,46.8,30.15,South,183,5.0,10.0,96,0.00,,---,0.12,VWS V14.00,2013-01-07 18:07:00,
2013-01-07 10:12:00,47.9,46.8,30.15,SSW,199,12.0,12.0,96,0.01,,---,0.13,VWS V14.00,2013-01-07 18:12:00,
2013-01-07 10:17:00,48.0,46.9,30.15,South,172,7.0,12.0,96,0.01,,---,0.13,VWS V14.00,2013-01-07 18:17:00,
2013-01-07 10:22:00,48.0,46.9,30.16,SSE,167,7.0,12.0,96,0.01,,---,0.13,VWS V14.00,2013-01-07 18:22:00,
2013-01-07 10:27:00,48.1,47.3,30.16,SSE,166,5.0,12.0,97,0.01,,---,0.13,VWS V14.00,2013-01-07 18:27:00,
2013-01-07 10:32:00,48.2,47.4,30.15,South,184,4.0,12.0,97,0.01,,---,0.13,VWS V14.00,2013-01-07 18:32:00,
2013-01-07 10:37:00,48.2,47.4,30.16,SSE,166,4.0,11.0,97,0.01,,---,0.13,VWS V14.00,2013-01-07 18:37:00,
2013-01-07 10:42:00,48.3,47.5,30.16,South,186,6.0,11.0,97,0.01,,---,0.13,VWS V14.00,2013-01-07 18:42:00,
2013-01-07 10:47:00,48.4,47.6,30.16,South,178,5.0,11.0,97,0.01,,---,0.13,VWS V14.00,2013-01-07 18:47:00,
2013-01-07 10:52:00,48.4,47.3,30.16,South,175,5.0,11.0,96,0.01,,---,0.13,VWS V14.00,2013-01-07 18:52:00,
2013-01-07 10:57:00,48.6,47.5,30.16,SSW,212,4.0,11.0,96,0.01,,---,0.13,VWS V14.00,2013-01-07 18:57:00,
2013-01-07 11:02:00,48.7,47.6,30.16,South,180,5.0,5.0,96,0.01,,---,0.13,VWS V14.00,2013-01-07 19:02:00,
2013-01-07 11:07:00,48.7,47.6,30.16,South,175,8.0,10.0,96,0.01,,---,0.13,VWS V14.00,2013-01-07 19:07:00,
2013-01-07 11:12:00,48.8,47.7,30.17,SSW,211,4.0,10.0,96,0.01,,---,0.13,VWS V14.00,2013-01-07 19:12:00,
2013-01-07 11:17:00,48.9,47.8,30.16,SSE,168,2.0,10.0,96,0.01,,---,0.13,VWS V14.00,2013-01-07 19:17:00,
2013-01-07 11:22:00,49.0,47.9,30.16,South,171,9.0,12.0,96,0.01,,---,0.13,VWS V14.00,2013-01-07 19:22:00,
2013-01-07 11:27:00,49.2,48.1,30.15,SSW,194,5.0,14.0,96,0.01,,---,0.13,VWS V14.00,2013-01-07 19:27:00,
2013-01-07 11:32:00,49.4,48.0,30.15,SSW,208,9.0,9.0,95,0.00,,---,0.13,VWS V14.00,2013-01-07 19:32:00,
2013-01-07 11:37:00,49.5,48.1,30.15,SSE,153,4.0,14.0,95,0.00,,---,0.13,VWS V14.00,2013-01-07 19:37:00,
2013-01-07 11:42:00,49.6,48.2,30.15,WSW,238,10.0,17.0,95,0.00,,---,0.13,VWS V14.00,2013-01-07 19:42:00,
2013-01-07 11:47:00,49.7,48.3,30.15,SE,146,6.0,17.0,95,0.00,,---,0.13,VWS V14.00,2013-01-07 19:47:00,
2013-01-07 11:52:00,49.8,48.4,30.15,SSW,209,6.0,17.0,95,0.00,,---,0.13,VWS V14.00,2013-01-07 19:52:00,
2013-01-07 11:57:00,49.9,48.5,30.16,SSW,209,6.0,17.0,95,0.00,,---,0.13,VWS V14.00,2013-01-07 19:57:00,
2013-01-07 12:02:00,50.1,48.4,30.16,SSE,150,9.0,9.0,94,0.00,,---,0.13,VWS V14.00,2013-01-07 20:02:00,
2013-01-07 12:07:00,50.2,48.5,30.15,SW,235,6.0,12.0,94,0.00,,---,0.13,VWS V14.00,2013-01-07 20:07:00,
2013-01-07 12:12:00,50.4,48.7,30.16,WSW,242,5.0,12.0,94,0.00,,---,0.13,VWS V14.00,2013-01-07 20:12:00,
2013-01-07 12:17:00,50.4,48.7,30.16,SSW,199,6.0,12.0,94,0.00,,---,0.13,VWS V14.00,2013-01-07 20:17:00,
2013-01-07 12:19:00,50.4,48.7,30.16,South,191,3.0,12.0,94,0.00,,---,0.13,VWS V14.00,2013-01-07 20:19:00,
2013-01-07 12:24:00,50.4,48.7,30.16,SW,229,5.0,12.0,94,0.00,,---,0.13,VWS V14.00,2013-01-07 20:24:00,
2013-01-07 12:29:00,50.4,48.7,30.16,South,173,4.0,12.0,94,0.00,,---,0.13,VWS V14.00,2013-01-07 20:29:00,
2013-01-07 12:34:00,50.3,48.9,30.16,SSW,196,8.0,10.0,95,0.00,,---,0.13,VWS V14.00,2013-01-07 20:34:00,
2013-01-07 12:39:00,50.3,48.9,30.15,South,177,5.0,10.0,95,0.00,,---,0.13,VWS V14.00,2013-01-07 20:39:00,
2013-01-07 12:44:00,50.1,48.7,30.15,South,189,4.0,10.0,95,0.00,,---,0.13,VWS V14.00,2013-01-07 20:44:00,
2013-01-07 12:49:00,50.1,49.0,30.16,SSW,194,4.0,10.0,96,0.01,,---,0.14,VWS V14.00,2013-01-07 20:49:00,
2013-01-07 12:54:00,50.1,49.0,30.16,SSW,207,4.0,10.0,96,0.01,,---,0.14,VWS V14.00,2013-01-07 20:54:00,
2013-01-07 12:59:00,50.2,49.1,30.15,SW,223,3.0,10.0,96,0.01,,---,0.14,VWS V14.00,2013-01-07 20:59:00,
2013-01-07 13:04:00,50.2,49.1,30.16,SSE,167,2.0,6.0,96,0.01,,---,0.14,VWS V14.00,2013-01-07 21:04:00,
2013-01-07 13:09:00,50.3,49.2,30.16,SSW,200,6.0,7.0,96,0.01,,---,0.14,VWS V14.00,2013-01-07 21:09:00,
2013-01-07 13:14:00,50.5,49.4,30.15,SSW,208,6.0,11.0,96,0.01,,---,0.14,VWS V14.00,2013-01-07 21:14:00,
2013-01-07 13:19:00,50.6,49.8,30.16,South,182,5.0,11.0,97,0.01,,---,0.14,VWS V14.00,2013-01-07 21:19:00,
2013-01-07 13:24:00,50.8,50.0,30.16,SSE,168,5.0,11.0,97,0.01,,---,0.14,VWS V14.00,2013-01-07 21:24:00,
2013-01-07 13:29:00,50.9,49.8,30.16,SSE,153,5.0,11.0,96,0.01,,---,0.14,VWS V14.00,2013-01-07 21:29:00,
2013-01-07 13:34:00,51.1,50.0,30.15,SSW,198,4.0,8.0,96,0.01,,---,0.14,VWS V14.00,2013-01-07 21:34:00,
2013-01-07 13:39:00,51.3,50.2,30.15,SSW,202,5.0,9.0,96,0.01,,---,0.14,VWS V14.00,2013-01-07 21:39:00,
2013-01-07 13:44:00,51.5,50.4,30.16,SW,236,5.0,11.0,96,0.01,,---,0.14,VWS V14.00,2013-01-07 21:44:00,
2013-01-07 13:49:00,51.7,50.3,30.16,South,169,2.0,11.0,95,0.01,,---,0.14,VWS V14.00,2013-01-07 21:49:00,
2013-01-07 13:54:00,51.9,50.5,30.17,SSW,210,3.0,11.0,95,0.01,,---,0.14,VWS V14.00,2013-01-07 21:54:00,
2013-01-07 13:59:00,52.1,50.4,30.17,SW,217,6.0,11.0,94,0.01,,---,0.14,VWS V14.00,2013-01-07 21:59:00,
2013-01-07 14:04:00,52.2,50.2,30.17,SSW,208,5.0,8.0,93,0.00,,---,0.14,VWS V14.00,2013-01-07 22:04:00,
2013-01-07 14:09:00,52.3,50.3,30.18,South,182,2.0,8.0,93,0.00,,---,0.14,VWS V14.00,2013-01-07 22:09:00,
2013-01-07 14:14:00,52.3,50.3,30.18,SSW,192,3.0,8.0,93,0.00,,---,0.14,VWS V14.00,2013-01-07 22:14:00,
2013-01-07 14:19:00,52.3,50.3,30.18,South,181,3.0,8.0,93,0.00,,---,0.14,VWS V14.00,2013-01-07 22:19:00,
2013-01-07 14:24:00,52.3,50.0,30.18,SW,222,3.0,8.0,92,0.00,,---,0.14,VWS V14.00,2013-01-07 22:24:00,
2013-01-07 14:29:00,52.3,49.8,30.18,SSW,197,4.0,8.0,91,0.00,,---,0.14,VWS V14.00,2013-01-07 22:29:00,
2013-01-07 14:34:00,52.3,50.0,30.17,SSW,205,3.0,7.0,92,0.00,,---,0.14,VWS V14.00,2013-01-07 22:34:00,
2013-01-07 14:39:00,52.2,50.0,30.18,WSW,241,2.0,7.0,92,0.00,,---,0.14,VWS V14.00,2013-01-07 22:39:00,
2013-01-07 14:44:00,52.1,49.8,30.18,South,174,4.0,7.0,92,0.00,,---,0.14,VWS V14.00,2013-01-07 22:44:00,
2013-01-07 14:49:00,51.9,49.7,30.18,SW,232,2.0,7.0,92,0.00,,---,0.14,VWS V14.00,2013-01-07 22:49:00,
2013-01-07 14:54:00,51.9,49.7,30.19,SW,214,4.0,7.0,92,0.00,,---,0.14,VWS V14.00,2013-01-07 22:54:00,
2013-01-07 14:59:00,51.9,49.7,30.19,SSW,196,1.0,7.0,92,0.00,,---,0.14,VWS V14.00,2013-01-07 22:59:00,
2013-01-07 15:04:00,51.9,49.9,30.19,SSW,200,2.0,5.0,93,0.00,,---,0.14,VWS V14.00,2013-01-07 23:04:00,
2013-01-07 15:09:00,51.9,49.9,30.19,SSW,203,4.0,5.0,93,0.00,,---,0.14,VWS V14.00,2013-01-07 23:09:00,
2013-01-07 15:14:00,52.0,49.8,30.19,South,188,3.0,6.0,92,0.00,,---,0.14,VWS V14.00,2013-01-07 23:14:00,
2013-01-07 15:19:00,52.1,49.8,30.19,South,186,2.0,6.0,92,0.00,,---,0.14,VWS V14.00,2013-01-07 23:19:00,
2013-01-07 15:24:00,52.2,50.0,30.19,SSW,205,2.0,7.0,92,0.00,,---,0.14,VWS V14.00,2013-01-07 23:24:00,
2013-01-07 15:30:00,52.3,50.0,30.18,SW,229,3.0,7.0,92,0.00,,---,0.14,VWS V14.00,2013-01-07 23:30:00,
2013-01-07 15:35:00,52.3,49.8,30.18,SW,225,3.0,6.0,91,0.00,,---,0.14,VWS V14.00,2013-01-07 23:35:00,
2013-01-07 15:40:00,52.2,49.7,30.19,SW,226,3.0,6.0,91,0.00,,---,0.14,VWS V14.00,2013-01-07 23:40:00,
2013-01-07 15:45:00,52.2,49.4,30.20,SSW,199,4.0,6.0,90,0.00,,---,0.14,VWS V14.00,2013-01-07 23:45:00,
2013-01-07 15:50:00,52.1,49.3,30.20,South,178,4.0,7.0,90,0.00,,---,0.14,VWS V14.00,2013-01-07 23:50:00,
2013-01-07 15:55:00,52.0,49.5,30.19,South,175,5.0,7.0,91,0.00,,---,0.14,VWS V14.00,2013-01-07 23:55:00,
2013-01-07 16:00:00,51.9,49.4,30.19,SSW,205,3.0,7.0,91,0.00,,---,0.14,VWS V14.00,2013-01-08 00:00:00,
2013-01-07 16:05:00,51.8,49.3,30.19,SW,229,4.0,7.0,91,0.00,,---,0.14,VWS V14.00,2013-01-08 00:05:00,
2013-01-07 16:10:00,51.7,49.2,30.19,SW,214,3.0,7.0,91,0.00,,---,0.14,VWS V14.00,2013-01-08 00:10:00,
2013-01-07 16:15:00,51.6,49.4,30.19,SSW,199,2.0,7.0,92,0.00,,---,0.14,VWS V14.00,2013-01-08 00:15:00,
2013-01-07 16:20:00,51.4,49.2,30.19,SW,217,2.0,7.0,92,0.00,,---,0.14,VWS V14.00,2013-01-08 00:20:00,
2013-01-07 16:25:00,51.2,49.2,30.19,South,186,2.0,7.0,93,0.00,,---,0.14,VWS V14.00,2013-01-08 00:25:00,
2013-01-07 16:30:00,50.9,48.7,30.19,SSW,208,3.0,7.0,92,0.00,,---,0.14,VWS V14.00,2013-01-08 00:30:00,
2013-01-07 16:35:00,50.8,48.6,30.20,SSW,197,3.0,5.0,92,0.00,,---,0.14,VWS V14.00,2013-01-08 00:35:00,
2013-01-07 16:40:00,50.6,48.4,30.20,SSW,197,3.0,6.0,92,0.00,,---,0.14,VWS V14.00,2013-01-08 00:40:00,
2013-01-07 16:45:00,50.5,48.6,30.19,SW,215,3.0,6.0,93,0.00,,---,0.14,VWS V14.00,2013-01-08 00:45:00,
2013-01-07 16:50:00,50.4,48.5,30.19,SSE,159,2.0,6.0,93,0.00,,---,0.14,VWS V14.00,2013-01-08 00:50:00,
2013-01-07 16:55:00,50.4,48.5,30.20,SSW,200,2.0,6.0,93,0.00,,---,0.14,VWS V14.00,2013-01-08 00:55:00,
2013-01-07 17:00:00,50.2,48.3,30.20,SSW,195,2.0,6.0,93,0.00,,---,0.14,VWS V14.00,2013-01-08 01:00:00,
2013-01-07 17:05:00,50.1,48.4,30.19,SSW,212,2.0,5.0,94,0.00,,---,0.14,VWS V14.00,2013-01-08 01:05:00,
2013-01-07 17:10:00,50.1,48.4,30.20,SSW,203,2.0,5.0,94,0.00,,---,0.14,VWS V14.00,2013-01-08 01:10:00,
2013-01-07 17:15:00,50.1,48.2,30.19,SSW,199,3.0,7.0,93,0.00,,---,0.14,VWS V14.00,2013-01-08 01:15:00,
2013-01-07 17:20:00,50.2,48.3,30.19,SSW,202,3.0,7.0,93,0.00,,---,0.14,VWS V14.00,2013-01-08 01:20:00,
2013-01-07 17:25:00,50.2,48.0,30.19,South,176,2.0,7.0,92,0.00,,---,0.14,VWS V14.00,2013-01-08 01:25:00,
2013-01-07 17:30:00,50.2,48.0,30.19,South,173,5.0,7.0,92,0.00,,---,0.14,VWS V14.00,2013-01-08 01:30:00,
2013-01-07 17:35:00,50.3,47.8,30.19,SW,222,5.0,7.0,91,0.00,,---,0.14,VWS V14.00,2013-01-08 01:35:00,
2013-01-07 17:40:00,50.3,47.8,30.20,SW,215,4.0,7.0,91,0.00,,---,0.14,VWS V14.00,2013-01-08 01:40:00,
2013-01-07 17:45:00,50.1,47.6,30.21,SW,224,2.0,7.0,91,0.00,,---,0.14,VWS V14.00,2013-01-08 01:45:00,
2013-01-07 17:50:00,50.1,47.6,30.21,South,178,2.0,7.0,91,0.00,,---,0.14,VWS V14.00,2013-01-08 01:50:00,
2013-01-07 17:55:00,50.0,47.5,30.21,SSW,192,1.0,7.0,91,0.00,,---,0.14,VWS V14.00,2013-01-08 01:55:00,
2013-01-07 18:00:00,49.9,47.4,30.21,SSW,193,1.0,7.0,91,0.00,,---,0.14,VWS V14.00,2013-01-08 02:00:00,
2013-01-07 18:05:00,49.7,47.2,30.20,SSE,166,4.0,4.0,91,0.00,,---,0.14,VWS V14.00,2013-01-08 02:05:00,
2013-01-07 18:10:00,49.7,47.2,30.20,SW,218,1.0,5.0,91,0.00,,---,0.14,VWS V14.00,2013-01-08 02:10:00,
2013-01-07 18:15:00,49.6,47.1,30.21,South,181,1.0,5.0,91,0.00,,---,0.14,VWS V14.00,2013-01-08 02:15:00,
2013-01-07 18:20:00,49.6,47.1,30.21,South,188,2.0,5.0,91,0.00,,---,0.14,VWS V14.00,2013-01-08 02:20:00,
2013-01-07 18:25:00,49.6,47.1,30.22,SW,219,0.0,5.0,91,0.00,,---,0.14,VWS V14.00,2013-01-08 02:25:00,
2013-01-07 18:30:00,49.5,47.0,30.22,SW,219,0.0,5.0,91,0.00,,---,0.14,VWS V14.00,2013-01-08 02:30:00,
2013-01-07 18:35:00,49.3,46.8,30.22,SSW,213,0.0,0.0,91,0.00,,---,0.14,VWS V14.00,2013-01-08 02:35:00,
2013-01-07 18:40:00,49.2,47.0,30.21,SSE,161,1.0,3.0,92,0.00,,---,0.14,VWS V14.00,2013-01-08 02:40:00,
2013-01-07 18:45:00,49.2,47.0,30.22,SSE,161,0.0,3.0,92,0.00,,---,0.14,VWS V14.00,2013-01-08 02:45:00,
2013-01-07 18:50:00,49.0,46.8,30.22,SSE,161,0.0,3.0,92,0.00,,---,0.14,VWS V14.00,2013-01-08 02:50:00,
2013-01-07 18:55:00,48.9,46.7,30.23,SSE,161,0.0,3.0,92,0.00,,---,0.14,VWS V14.00,2013-01-08 02:55:00,
2013-01-07 19:00:00,48.7,46.8,30.23,SSE,161,0.0,3.0,93,0.00,,---,0.14,VWS V14.00,2013-01-08 03:00:00,
2013-01-07 19:05:00,48.6,46.7,30.23,SSE,161,0.0,0.0,93,0.00,,---,0.14,VWS V14.00,2013-01-08 03:05:00,
2013-01-07 19:10:00,48.4,46.8,30.23,SSE,161,0.0,0.0,94,0.00,,---,0.14,VWS V14.00,2013-01-08 03:10:00,
2013-01-07 19:15:00,48.1,46.2,30.23,SSE,161,0.0,0.0,93,0.00,,---,0.14,VWS V14.00,2013-01-08 03:15:00,
2013-01-07 19:20:00,47.9,46.3,30.23,SSE,161,0.0,0.0,94,0.00,,---,0.14,VWS V14.00,2013-01-08 03:20:00,
2013-01-07 19:26:00,47.8,46.2,30.24,SSE,161,0.0,0.0,94,0.00,,---,0.14,VWS V14.00,2013-01-08 03:26:00,
2013-01-07 19:31:00,47.7,46.3,30.22,SSE,161,0.0,0.0,95,0.00,,---,0.14,VWS V14.00,2013-01-08 03:31:00,
2013-01-07 19:36:00,47.5,46.1,30.22,SSE,161,0.0,0.0,95,0.00,,---,0.14,VWS V14.00,2013-01-08 03:36:00,
2013-01-07 19:41:00,47.4,46.0,30.22,SSE,161,0.0,0.0,95,0.00,,---,0.14,VWS V14.00,2013-01-08 03:41:00,
2013-01-07 19:46:00,47.4,46.0,30.23,SSE,161,0.0,0.0,95,0.00,,---,0.14,VWS V14.00,2013-01-08 03:46:00,
2013-01-07 19:51:00,47.4,46.3,30.22,SSE,161,0.0,0.0,96,0.00,,---,0.14,VWS V14.00,2013-01-08 03:51:00,
2013-01-07 19:56:00,47.4,46.3,30.22,South,180,1.0,2.0,96,0.00,,---,0.14,VWS V14.00,2013-01-08 03:56:00,
2013-01-07 20:01:00,47.7,46.6,30.22,SSW,211,1.0,3.0,96,0.00,,---,0.14,VWS V14.00,2013-01-08 04:01:00,
2013-01-07 20:06:00,47.9,46.8,30.22,South,178,1.0,4.0,96,0.00,,---,0.14,VWS V14.00,2013-01-08 04:06:00,
2013-01-07 20:11:00,48.1,46.7,30.23,SSW,209,1.0,4.0,95,0.00,,---,0.14,VWS V14.00,2013-01-08 04:11:00,
2013-01-07 20:16:00,48.2,46.8,30.22,SSE,155,0.0,4.0,95,0.00,,---,0.14,VWS V14.00,2013-01-08 04:16:00,
2013-01-07 20:21:00,48.1,46.7,30.22,SSE,155,0.0,4.0,95,0.00,,---,0.14,VWS V14.00,2013-01-08 04:21:00,
2013-01-07 20:26:00,48.0,46.6,30.22,South,184,0.0,4.0,95,0.00,,---,0.14,VWS V14.00,2013-01-08 04:26:00,
2013-01-07 20:31:00,48.0,46.6,30.22,South,184,1.0,4.0,95,0.00,,---,0.14,VWS V14.00,2013-01-08 04:31:00,
2013-01-07 20:36:00,47.9,46.5,30.22,South,178,0.0,1.0,95,0.00,,---,0.14,VWS V14.00,2013-01-08 04:36:00,
2013-01-07 20:41:00,47.9,46.5,30.22,South,178,0.0,1.0,95,0.00,,---,0.14,VWS V14.00,2013-01-08 04:41:00,
2013-01-07 20:46:00,47.9,46.5,30.23,South,178,0.0,1.0,95,0.00,,---,0.14,VWS V14.00,2013-01-08 04:46:00,
2013-01-07 20:51:00,47.8,46.2,30.24,South,178,0.0,1.0,94,0.00,,---,0.14,VWS V14.00,2013-01-08 04:51:00,
2013-01-07 20:56:00,47.8,46.2,30.24,South,178,0.0,1.0,94,0.00,,---,0.14,VWS V14.00,2013-01-08 04:56:00,
2013-01-07 21:00:00,47.7,46.1,30.24,SSW,200,0.0,2.0,94,0.00,,---,0.14,VWS V14.00,2013-01-08 05:00:00,
2013-01-07 21:01:00,47.7,46.1,30.24,SSW,200,0.0,2.0,94,0.00,,---,0.14,VWS V14.00,2013-01-08 05:01:00,
2013-01-07 21:03:00,47.7,46.3,30.23,SSW,200,0.0,1.0,95,0.00,,---,0.14,VWS V14.00,2013-01-08 05:03:00,
2013-01-07 21:08:00,47.7,46.3,30.24,SSE,148,0.0,2.0,95,0.00,,---,0.14,VWS V14.00,2013-01-08 05:08:00,
2013-01-07 21:13:00,47.7,46.1,30.24,SSE,148,0.0,2.0,94,0.00,,---,0.14,VWS V14.00,2013-01-08 05:13:00,
2013-01-07 21:18:00,47.6,46.2,30.24,SSE,148,0.0,2.0,95,0.00,,---,0.14,VWS V14.00,2013-01-08 05:18:00,
2013-01-07 21:23:00,47.5,46.1,30.23,SE,142,0.0,2.0,95,0.00,,---,0.14,VWS V14.00,2013-01-08 05:23:00,
2013-01-07 21:28:00,47.2,45.8,30.23,SE,140,0.0,2.0,95,0.00,,---,0.14,VWS V14.00,2013-01-08 05:28:00,
2013-01-07 21:33:00,47.0,45.7,30.23,SE,140,0.0,0.0,95,0.00,,---,0.14,VWS V14.00,2013-01-08 05:33:00,
2013-01-07 21:38:00,46.9,45.5,30.22,SE,140,0.0,0.0,95,0.00,,---,0.14,VWS V14.00,2013-01-08 05:38:00,
2013-01-07 21:43:00,46.7,45.3,30.22,SE,140,0.0,0.0,95,0.00,,---,0.14,VWS V14.00,2013-01-08 05:43:00,
2013-01-07 21:48:00,46.7,45.6,30.23,SE,140,0.0,0.0,96,0.00,,---,0.14,VWS V14.00,2013-01-08 05:48:00,
2013-01-07 21:53:00,46.8,45.7,30.23,SE,140,0.0,0.0,96,0.00,,---,0.14,VWS V14.00,2013-01-08 05:53:00,
2013-01-07 21:58:00,46.9,45.8,30.23,SE,140,0.0,0.0,96,0.00,,---,0.14,VWS V14.00,2013-01-08 05:58:00,
2013-01-07 22:03:00,46.8,45.7,30.22,SSE,159,0.0,2.0,96,0.00,,---,0.14,VWS V14.00,2013-01-08 06:03:00,
2013-01-07 22:08:00,46.9,45.8,30.23,SSE,159,0.0,2.0,96,0.00,,---,0.14,VWS V14.00,2013-01-08 06:08:00,
2013-01-07 22:13:00,47.1,46.3,30.23,SSE,159,0.0,2.0,97,0.00,,---,0.14,VWS V14.00,2013-01-08 06:13:00,
2013-01-07 22:18:00,47.0,45.9,30.23,SSE,159,0.0,2.0,96,0.00,,---,0.14,VWS V14.00,2013-01-08 06:18:00,
2013-01-07 22:23:00,46.9,45.8,30.23,SSE,159,0.0,2.0,96,0.00,,---,0.14,VWS V14.00,2013-01-08 06:23:00,
2013-01-07 22:28:00,46.9,46.1,30.23,SSE,159,0.0,2.0,97,0.00,,---,0.14,VWS V14.00,2013-01-08 06:28:00,
2013-01-07 22:33:00,47.0,46.2,30.23,SSE,159,0.0,0.0,97,0.00,,---,0.14,VWS V14.00,2013-01-08 06:33:00,
2013-01-07 22:38:00,46.9,45.8,30.23,SSE,159,0.0,0.0,96,0.00,,---,0.14,VWS V14.00,2013-01-08 06:38:00,
2013-01-07 22:43:00,46.9,45.8,30.24,SSE,159,0.0,0.0,96,0.00,,---,0.14,VWS V14.00,2013-01-08 06:43:00,
2013-01-07 22:48:00,47.0,46.2,30.23,SSE,159,0.0,0.0,97,0.00,,---,0.14,VWS V14.00,2013-01-08 06:48:00,
2013-01-07 22:53:00,46.9,45.8,30.23,SSE,159,0.0,0.0,96,0.00,,---,0.14,VWS V14.00,2013-01-08 06:53:00,
2013-01-07 22:58:00,46.7,45.6,30.23,SSE,159,0.0,0.0,96,0.00,,---,0.14,VWS V14.00,2013-01-08 06:58:00,
2013-01-07 23:03:00,46.7,45.6,30.23,SSE,159,0.0,0.0,96,0.00,,---,0.14,VWS V14.00,2013-01-08 07:03:00,
2013-01-07 23:08:00,46.5,45.4,30.23,SSE,159,0.0,0.0,96,0.00,,---,0.14,VWS V14.00,2013-01-08 07:08:00,
2013-01-07 23:13:00,46.4,45.6,30.23,SSE,159,0.0,0.0,97,0.00,,---,0.14,VWS V14.00,2013-01-08 07:13:00,
2013-01-07 23:18:00,46.5,45.7,30.23,SSE,159,0.0,0.0,97,0.00,,---,0.14,VWS V14.00,2013-01-08 07:18:00,
2013-01-07 23:23:00,46.7,45.9,30.24,SSE,159,0.0,0.0,97,0.00,,---,0.14,VWS V14.00,2013-01-08 07:23:00,
2013-01-07 23:28:00,46.7,45.9,30.24,SSE,159,0.0,0.0,97,0.00,,---,0.14,VWS V14.00,2013-01-08 07:28:00,
2013-01-07 23:33:00,46.7,45.9,30.24,SSE,159,0.0,0.0,97,0.00,,---,0.14,VWS V14.00,2013-01-08 07:33:00,
2013-01-07 23:38:00,46.8,46.0,30.24,SSE,159,0.0,0.0,97,0.00,,---,0.14,VWS V14.00,2013-01-08 07:38:00,
2013-01-07 23:43:00,46.7,45.9,30.24,SSE,159,0.0,0.0,97,0.00,,---,0.14,VWS V14.00,2013-01-08 07:43:00,
2013-01-07 23:48:00,46.7,45.6,30.23,SSE,159,0.0,0.0,96,0.00,,---,0.14,VWS V14.00,2013-01-08 07:48:00,
2013-01-07 23:53:00,46.5,45.7,30.23,SSE,159,0.0,0.0,97,0.00,,---,0.14,VWS V14.00,2013-01-08 07:53:00,
2013-01-07 23:58:00,46.6,45.8,30.23,SSE,159,0.0,0.0,97,0.00,,---,0.14,VWS V14.00,2013-01-08 07:58:00,